sensor_id;sensor_type;location;lat;lon;timestamp;pressure;altitude;pressure_sealevel;temperature;humidity
42671;BME280;28283;55.426;37.756;2024-01-11T00:43:15;97531.84;;;-7.43;87.28
42671;BME280;28283;55.426;37.756;2024-01-11T00:48:17;97478.25;;;-7.57;87.27
42671;BME280;28283;55.426;37.756;2024-01-11T00:53:17;97491.06;;;-7.34;87.49
42671;BME280;28283;55.426;37.756;2024-01-11T00:58:18;97476.25;;;-7.14;86.85
42671;BME280;28283;55.426;37.756;2024-01-11T01:03:20;97466.66;;;-7.14;86.92
42671;BME280;28283;55.426;37.756;2024-01-11T01:08:20;97444.53;;;-7.10;87.09
42671;BME280;28283;55.426;37.756;2024-01-11T01:13:21;97433.25;;;-7.00;87.87
42671;BME280;28283;55.426;37.756;2024-01-11T01:18:22;97415.22;;;-6.84;86.92
42671;BME280;28283;55.426;37.756;2024-01-11T01:23:22;97398.19;;;-6.78;86.99
42671;BME280;28283;55.426;37.756;2024-01-11T01:28:23;97387.72;;;-6.68;87.18
42671;BME280;28283;55.426;37.756;2024-01-11T01:33:23;97276.47;;;-7.18;87.11
42671;BME280;28283;55.426;37.756;2024-01-11T01:38:24;97318.97;;;-6.69;86.92
42671;BME280;28283;55.426;37.756;2024-01-11T01:43:25;97337.06;;;-6.58;87.90
42671;BME280;28283;55.426;37.756;2024-01-11T01:48:26;97272.94;;;-6.89;88.06
42671;BME280;28283;55.426;37.756;2024-01-11T01:53:27;97310.63;;;-6.45;87.65
42671;BME280;28283;55.426;37.756;2024-01-11T01:58:28;97283.94;;;-6.48;88.16
42671;BME280;28283;55.426;37.756;2024-01-11T02:03:29;97275.41;;;-6.23;87.88
42671;BME280;28283;55.426;37.756;2024-01-11T02:08:31;97177.53;;;-6.56;88.31
42671;BME280;28283;55.426;37.756;2024-01-11T02:13:32;97211.19;;;-6.07;88.55
42671;BME280;28283;55.426;37.756;2024-01-11T02:18:33;97240.22;;;-5.92;89.17
42671;BME280;28283;55.426;37.756;2024-01-11T02:23:36;97209.72;;;-5.84;89.70
42671;BME280;28283;55.426;37.756;2024-01-11T02:28:45;97105.31;;;-6.57;89.95
42671;BME280;28283;55.426;37.756;2024-01-11T02:33:46;97203.59;;;-5.75;90.81
42671;BME280;28283;55.426;37.756;2024-01-11T02:38:48;97162.25;;;-5.71;90.41
42671;BME280;28283;55.426;37.756;2024-01-11T02:43:49;97166.34;;;-5.42;90.47
42671;BME280;28283;55.426;37.756;2024-01-11T02:48:50;97147.53;;;-5.46;90.22
42671;BME280;28283;55.426;37.756;2024-01-11T02:53:52;97131.06;;;-5.38;90.96
42671;BME280;28283;55.426;37.756;2024-01-11T02:58:52;97094.50;;;-5.48;91.13
42671;BME280;28283;55.426;37.756;2024-01-11T03:03:54;97117.00;;;-4.94;90.64
42671;BME280;28283;55.426;37.756;2024-01-11T03:08:55;97083.91;;;-4.95;91.24
42671;BME280;28283;55.426;37.756;2024-01-11T03:13:56;97058.06;;;-4.99;91.63
42671;BME280;28283;55.426;37.756;2024-01-11T03:18:56;97066.34;;;-4.44;91.92
42671;BME280;28283;55.426;37.756;2024-01-11T03:23:57;97059.78;;;-4.40;92.14
42671;BME280;28283;55.426;37.756;2024-01-11T03:28:58;97054.53;;;-4.24;92.19
42671;BME280;28283;55.426;37.756;2024-01-11T03:33:58;97045.34;;;-4.11;92.70
42671;BME280;28283;55.426;37.756;2024-01-11T03:38:59;97040.09;;;-3.87;93.87
42671;BME280;28283;55.426;37.756;2024-01-11T03:43:59;97025.16;;;-3.78;93.73
42671;BME280;28283;55.426;37.756;2024-01-11T03:49:01;96988.72;;;-3.81;94.07
42671;BME280;28283;55.426;37.756;2024-01-11T03:54:01;97028.78;;;-3.39;94.97
42671;BME280;28283;55.426;37.756;2024-01-11T03:59:01;97006.00;;;-3.47;94.47
42671;BME280;28283;55.426;37.756;2024-01-11T04:04:02;96987.47;;;-3.14;95.00
42671;BME280;28283;55.426;37.756;2024-01-11T04:09:03;96982.47;;;-3.01;95.56
42671;BME280;28283;55.426;37.756;2024-01-11T04:14:04;96970.75;;;-2.90;95.99
42671;BME280;28283;55.426;37.756;2024-01-11T04:19:04;96972.78;;;-2.54;95.78
42671;BME280;28283;55.426;37.756;2024-01-11T04:24:06;96970.84;;;-2.37;96.15
42671;BME280;28283;55.426;37.756;2024-01-11T04:29:07;96961.19;;;-2.07;96.62
42671;BME280;28283;55.426;37.756;2024-01-11T04:34:08;96926.78;;;-1.90;96.53
42671;BME280;28283;55.426;37.756;2024-01-11T04:39:09;96876.59;;;-2.04;96.28
42671;BME280;28283;55.426;37.756;2024-01-11T04:44:10;96933.09;;;-1.40;96.42
42671;BME280;28283;55.426;37.756;2024-01-11T04:49:10;96916.44;;;-1.26;96.53
42671;BME280;28283;55.426;37.756;2024-01-11T04:54:11;96871.81;;;-1.64;96.79
42671;BME280;28283;55.426;37.756;2024-01-11T04:59:12;96889.84;;;-1.31;96.64
42671;BME280;28283;55.426;37.756;2024-01-11T05:04:12;96896.25;;;-1.19;96.27
42671;BME280;28283;55.426;37.756;2024-01-11T05:09:13;96889.63;;;-1.29;95.94
42671;BME280;28283;55.426;37.756;2024-01-11T05:14:15;96890.97;;;-1.19;95.49
42671;BME280;28283;55.426;37.756;2024-01-11T05:19:15;96904.84;;;-1.10;95.42
42671;BME280;28283;55.426;37.756;2024-01-11T05:24:16;96882.50;;;-0.92;94.77
42671;BME280;28283;55.426;37.756;2024-01-11T05:29:16;96851.66;;;-1.20;94.62
42671;BME280;28283;55.426;37.756;2024-01-11T05:34:17;96885.78;;;-0.90;93.88
42671;BME280;28283;55.426;37.756;2024-01-11T05:39:17;96845.25;;;-1.11;93.44
42671;BME280;28283;55.426;37.756;2024-01-11T05:44:18;96873.03;;;-0.87;93.60
42671;BME280;28283;55.426;37.756;2024-01-11T05:49:19;96855.59;;;-0.88;93.21
42671;BME280;28283;55.426;37.756;2024-01-11T05:54:20;96828.78;;;-0.63;92.54
42671;BME280;28283;55.426;37.756;2024-01-11T05:59:20;96839.06;;;-0.75;92.17
42671;BME280;28283;55.426;37.756;2024-01-11T06:04:21;96831.38;;;-0.70;91.54
42671;BME280;28283;55.426;37.756;2024-01-11T06:09:21;96849.38;;;-0.52;91.52
42671;BME280;28283;55.426;37.756;2024-01-11T06:14:22;96828.66;;;-0.55;91.14
42671;BME280;28283;55.426;37.756;2024-01-11T06:19:23;96779.56;;;-0.78;90.99
42671;BME280;28283;55.426;37.756;2024-01-11T06:24:23;96842.50;;;-0.46;91.38
42671;BME280;28283;55.426;37.756;2024-01-11T06:29:24;96819.56;;;-0.46;91.08
42671;BME280;28283;55.426;37.756;2024-01-11T06:34:25;96799.50;;;-0.40;90.90
42671;BME280;28283;55.426;37.756;2024-01-11T06:39:25;96783.59;;;-0.53;91.25
42671;BME280;28283;55.426;37.756;2024-01-11T06:44:26;96711.41;;;-0.74;90.95
42671;BME280;28283;55.426;37.756;2024-01-11T06:49:27;96814.22;;;-0.24;90.13
42671;BME280;28283;55.426;37.756;2024-01-11T06:54:27;96772.81;;;-0.59;89.83
42671;BME280;28283;55.426;37.756;2024-01-11T06:59:28;96793.31;;;-0.19;90.29
42671;BME280;28283;55.426;37.756;2024-01-11T07:04:29;96778.47;;;-0.27;89.85
42671;BME280;28283;55.426;37.756;2024-01-11T07:09:29;96799.66;;;-0.13;89.64
42671;BME280;28283;55.426;37.756;2024-01-11T07:14:30;96711.00;;;-0.36;89.39
42671;BME280;28283;55.426;37.756;2024-01-11T07:19:31;96773.84;;;-0.11;89.94
42671;BME280;28283;55.426;37.756;2024-01-11T07:24:31;96666.63;;;-0.67;89.61
42671;BME280;28283;55.426;37.756;2024-01-11T07:29:38;96702.34;;;-0.23;89.92
42671;BME280;28283;55.426;37.756;2024-01-11T07:34:38;96777.81;;;0.13;89.71
42671;BME280;28283;55.426;37.756;2024-01-11T07:39:39;96764.19;;;0.16;88.70
42671;BME280;28283;55.426;37.756;2024-01-11T07:44:39;96732.09;;;0.19;89.60
42671;BME280;28283;55.426;37.756;2024-01-11T07:49:41;96775.41;;;0.18;89.04
42671;BME280;28283;55.426;37.756;2024-01-11T07:54:41;96761.56;;;0.16;89.51
42671;BME280;28283;55.426;37.756;2024-01-11T07:59:42;96737.97;;;0.08;89.37
42671;BME280;28283;55.426;37.756;2024-01-11T08:04:43;96705.47;;;0.01;89.36
42671;BME280;28283;55.426;37.756;2024-01-11T08:09:43;96679.06;;;0.14;88.46
42671;BME280;28283;55.426;37.756;2024-01-11T08:14:47;96698.16;;;0.09;88.72
42671;BME280;28283;55.426;37.756;2024-01-11T08:19:48;96628.59;;;-0.31;88.96
42671;BME280;28283;55.426;37.756;2024-01-11T08:24:49;96724.44;;;0.31;88.04
42671;BME280;28283;55.426;37.756;2024-01-11T08:29:50;96686.03;;;0.42;86.96
42671;BME280;28283;55.426;37.756;2024-01-11T08:34:50;96672.97;;;0.00;86.72
42671;BME280;28283;55.426;37.756;2024-01-11T08:39:51;96666.69;;;0.14;86.36
42671;BME280;28283;55.426;37.756;2024-01-11T08:44:52;96691.28;;;0.35;85.88
42671;BME280;28283;55.426;37.756;2024-01-11T08:49:54;96605.09;;;0.01;86.15
42671;BME280;28283;55.426;37.756;2024-01-11T08:54:56;96632.94;;;0.50;85.64
42671;BME280;28283;55.426;37.756;2024-01-11T08:59:57;96634.75;;;0.16;86.45
42671;BME280;28283;55.426;37.756;2024-01-11T09:04:57;96648.19;;;0.14;86.31
42671;BME280;28283;55.426;37.756;2024-01-11T09:09:58;96545.75;;;-0.37;87.02
42671;BME280;28283;55.426;37.756;2024-01-11T09:14:59;96654.50;;;0.40;87.39
42671;BME280;28283;55.426;37.756;2024-01-11T09:19:59;96569.94;;;-0.27;88.05
42671;BME280;28283;55.426;37.756;2024-01-11T09:25:00;96616.88;;;-0.09;88.50
42671;BME280;28283;55.426;37.756;2024-01-11T09:30:00;96587.22;;;-0.04;88.72
42671;BME280;28283;55.426;37.756;2024-01-11T09:35:02;96638.63;;;0.07;88.90
42671;BME280;28283;55.426;37.756;2024-01-11T09:40:05;96665.88;;;0.07;89.19
42671;BME280;28283;55.426;37.756;2024-01-11T09:45:15;96762.13;;;-0.44;92.15
42671;BME280;28283;55.426;37.756;2024-01-11T09:50:19;96742.31;;;-0.96;92.43
42671;BME280;28283;55.426;37.756;2024-01-11T09:55:21;96686.13;;;-1.96;93.24
42671;BME280;28283;55.426;37.756;2024-01-11T10:00:22;96764.97;;;-1.73;94.17
42671;BME280;28283;55.426;37.756;2024-01-11T10:05:25;96726.78;;;-2.35;95.43
42671;BME280;28283;55.426;37.756;2024-01-11T10:10:26;96735.00;;;-2.60;95.97
42671;BME280;28283;55.426;37.756;2024-01-11T10:15:28;96781.53;;;-2.45;97.00
42671;BME280;28283;55.426;37.756;2024-01-11T10:20:28;96779.53;;;-2.43;97.13
42671;BME280;28283;55.426;37.756;2024-01-11T10:25:30;96744.97;;;-2.40;97.98
42671;BME280;28283;55.426;37.756;2024-01-11T10:30:31;96782.75;;;-2.26;97.39
42671;BME280;28283;55.426;37.756;2024-01-11T10:35:34;96793.41;;;-2.35;97.28
42671;BME280;28283;55.426;37.756;2024-01-11T10:40:36;96829.22;;;-2.63;95.59
42671;BME280;28283;55.426;37.756;2024-01-11T10:45:36;96833.97;;;-2.44;95.93
42671;BME280;28283;55.426;37.756;2024-01-11T10:50:45;96824.94;;;-2.79;95.05
42671;BME280;28283;55.426;37.756;2024-01-11T10:55:46;96855.47;;;-2.78;93.32
42671;BME280;28283;55.426;37.756;2024-01-11T11:00:49;96803.59;;;-2.99;92.57
42671;BME280;28283;55.426;37.756;2024-01-11T11:05:54;96794.03;;;-3.38;91.44
42671;BME280;28283;55.426;37.756;2024-01-11T11:10:59;96865.47;;;-2.74;85.64
42671;BME280;28283;55.426;37.756;2024-01-11T11:16:00;96742.59;;;-3.71;80.19
42671;BME280;28283;55.426;37.756;2024-01-11T11:21:09;96913.13;;;-3.46;77.60
42671;BME280;28283;55.426;37.756;2024-01-11T11:26:15;96929.13;;;-3.64;74.33
42671;BME280;28283;55.426;37.756;2024-01-11T11:31:35;96934.38;;;-3.64;69.31
42671;BME280;28283;55.426;37.756;2024-01-11T11:36:36;96871.28;;;-4.27;73.95
42671;BME280;28283;55.426;37.756;2024-01-11T11:41:37;96951.78;;;-3.71;73.01
42671;BME280;28283;55.426;37.756;2024-01-11T11:46:39;96981.38;;;-3.86;74.88
42671;BME280;28283;55.426;37.756;2024-01-11T11:51:40;97006.56;;;-3.68;74.88
42671;BME280;28283;55.426;37.756;2024-01-11T11:56:42;96991.47;;;-3.66;70.80
42671;BME280;28283;55.426;37.756;2024-01-11T12:01:43;96984.09;;;-4.43;67.42
42671;BME280;28283;55.426;37.756;2024-01-11T12:06:45;97072.88;;;-4.56;67.58
42671;BME280;28283;55.426;37.756;2024-01-11T12:11:46;97046.78;;;-5.33;65.77
42671;BME280;28283;55.426;37.756;2024-01-11T12:16:56;97095.13;;;-5.54;65.08
42671;BME280;28283;55.426;37.756;2024-01-11T12:21:56;97073.91;;;-6.03;67.26
42671;BME280;28283;55.426;37.756;2024-01-11T12:26:57;97125.50;;;-6.13;68.74
42671;BME280;28283;55.426;37.756;2024-01-11T12:31:59;97115.47;;;-6.36;68.20
42671;BME280;28283;55.426;37.756;2024-01-11T12:36:59;97109.06;;;-6.60;69.38
42671;BME280;28283;55.426;37.756;2024-01-11T12:42:03;97097.66;;;-6.86;68.79
42671;BME280;28283;55.426;37.756;2024-01-11T12:47:04;97156.59;;;-6.74;69.11
42671;BME280;28283;55.426;37.756;2024-01-11T12:52:05;97173.22;;;-6.75;70.05
42671;BME280;28283;55.426;37.756;2024-01-11T12:57:06;97157.28;;;-7.00;67.83
42671;BME280;28283;55.426;37.756;2024-01-11T13:02:07;97154.41;;;-7.06;70.12
42671;BME280;28283;55.426;37.756;2024-01-11T13:07:08;97179.69;;;-7.07;69.95
42671;BME280;28283;55.426;37.756;2024-01-11T13:12:09;97197.16;;;-7.07;70.21
42671;BME280;28283;55.426;37.756;2024-01-11T13:17:10;97154.97;;;-7.50;70.63
42671;BME280;28283;55.426;37.756;2024-01-11T13:22:11;97232.47;;;-7.13;70.17
42671;BME280;28283;55.426;37.756;2024-01-11T13:27:11;97253.34;;;-7.03;70.56
42671;BME280;28283;55.426;37.756;2024-01-11T13:32:12;97219.41;;;-7.60;71.88
42671;BME280;28283;55.426;37.756;2024-01-11T13:37:13;97275.00;;;-7.50;72.14
42671;BME280;28283;55.426;37.756;2024-01-11T13:42:13;97240.97;;;-7.78;71.93
42671;BME280;28283;55.426;37.756;2024-01-11T13:47:14;97221.16;;;-7.61;69.69
42671;BME280;28283;55.426;37.756;2024-01-11T13:52:15;97239.84;;;-7.75;66.93
42671;BME280;28283;55.426;37.756;2024-01-11T13:57:16;97221.88;;;-8.27;65.21
42671;BME280;28283;55.426;37.756;2024-01-11T14:02:17;97314.16;;;-7.70;64.84
42671;BME280;28283;55.426;37.756;2024-01-11T14:07:17;97249.47;;;-7.95;65.04
42671;BME280;28283;55.426;37.756;2024-01-11T14:12:18;97230.88;;;-8.51;64.48
42671;BME280;28283;55.426;37.756;2024-01-11T14:17:19;97309.19;;;-7.63;63.22
42671;BME280;28283;55.426;37.756;2024-01-11T14:22:20;97332.81;;;-7.74;62.72
42671;BME280;28283;55.426;37.756;2024-01-11T14:27:20;97296.25;;;-8.03;62.90
42671;BME280;28283;55.426;37.756;2024-01-11T14:32:21;97327.75;;;-8.36;64.40
42671;BME280;28283;55.426;37.756;2024-01-11T14:37:22;97309.56;;;-7.97;64.58
42671;BME280;28283;55.426;37.756;2024-01-11T14:42:22;97348.97;;;-8.00;65.30
42671;BME280;28283;55.426;37.756;2024-01-11T14:47:24;97277.56;;;-8.78;64.21
42671;BME280;28283;55.426;37.756;2024-01-11T14:52:26;97373.53;;;-7.93;63.79
42671;BME280;28283;55.426;37.756;2024-01-11T14:57:26;97362.28;;;-7.93;65.66
42671;BME280;28283;55.426;37.756;2024-01-11T15:02:27;97351.94;;;-8.14;64.88
42671;BME280;28283;55.426;37.756;2024-01-11T15:07:28;97368.97;;;-8.10;64.35
42671;BME280;28283;55.426;37.756;2024-01-11T15:12:28;97388.81;;;-8.19;65.33
42671;BME280;28283;55.426;37.756;2024-01-11T15:17:29;97387.94;;;-7.98;62.96
42671;BME280;28283;55.426;37.756;2024-01-11T15:22:31;97382.47;;;-8.36;64.75
42671;BME280;28283;55.426;37.756;2024-01-11T15:27:32;97371.00;;;-8.23;64.57
42671;BME280;28283;55.426;37.756;2024-01-11T15:32:33;97354.25;;;-8.21;67.06
42671;BME280;28283;55.426;37.756;2024-01-11T15:37:34;97334.59;;;-8.75;67.76
42671;BME280;28283;55.426;37.756;2024-01-11T15:42:35;97418.53;;;-8.31;67.28
42671;BME280;28283;55.426;37.756;2024-01-11T15:47:35;97421.91;;;-8.50;67.77
42671;BME280;28283;55.426;37.756;2024-01-11T15:52:37;97392.03;;;-8.46;66.43
42671;BME280;28283;55.426;37.756;2024-01-11T15:57:38;97398.84;;;-8.55;66.70
42671;BME280;28283;55.426;37.756;2024-01-11T16:02:39;97380.81;;;-8.89;67.40
42671;BME280;28283;55.426;37.756;2024-01-11T16:07:42;97433.69;;;-8.56;67.41
42671;BME280;28283;55.426;37.756;2024-01-11T16:12:42;97396.22;;;-8.55;66.16
42671;BME280;28283;55.426;37.756;2024-01-11T16:17:43;97425.75;;;-8.75;67.02
42671;BME280;28283;55.426;37.756;2024-01-11T16:22:44;97446.69;;;-8.56;66.95
42671;BME280;28283;55.426;37.756;2024-01-11T16:27:44;97473.63;;;-8.46;65.48
42671;BME280;28283;55.426;37.756;2024-01-11T16:32:45;97398.22;;;-8.37;65.40
42671;BME280;28283;55.426;37.756;2024-01-11T16:37:45;97441.97;;;-8.62;65.84
42671;BME280;28283;55.426;37.756;2024-01-11T16:42:47;97478.00;;;-8.67;66.61
42671;BME280;28283;55.426;37.756;2024-01-11T16:47:47;97485.19;;;-8.59;66.80
42671;BME280;28283;55.426;37.756;2024-01-11T16:52:50;97451.38;;;-8.92;64.74
42671;BME280;28283;55.426;37.756;2024-01-11T16:57:51;97380.06;;;-9.22;65.04
42671;BME280;28283;55.426;37.756;2024-01-11T17:02:51;97494.47;;;-8.67;65.70
42671;BME280;28283;55.426;37.756;2024-01-11T17:07:52;97482.84;;;-8.62;65.73
42671;BME280;28283;55.426;37.756;2024-01-11T17:12:53;97486.56;;;-8.76;64.74
42671;BME280;28283;55.426;37.756;2024-01-11T17:17:53;97511.75;;;-8.66;65.04
42671;BME280;28283;55.426;37.756;2024-01-11T17:22:54;97436.56;;;-9.45;65.90
42671;BME280;28283;55.426;37.756;2024-01-11T17:27:55;97509.38;;;-8.90;66.29
42671;BME280;28283;55.426;37.756;2024-01-11T17:32:55;97529.22;;;-8.89;65.98
42671;BME280;28283;55.426;37.756;2024-01-11T17:37:56;97525.41;;;-9.17;65.30
42671;BME280;28283;55.426;37.756;2024-01-11T17:42:57;97489.28;;;-9.43;66.26
42671;BME280;28283;55.426;37.756;2024-01-11T17:47:58;97515.53;;;-9.46;65.99
42671;BME280;28283;55.426;37.756;2024-01-11T17:52:59;97513.31;;;-9.50;65.22
42671;BME280;28283;55.426;37.756;2024-01-11T17:58:00;97576.84;;;-8.98;64.45
42671;BME280;28283;55.426;37.756;2024-01-11T18:03:01;97543.78;;;-9.18;65.61
42671;BME280;28283;55.426;37.756;2024-01-11T18:08:03;97576.72;;;-8.96;65.94
42671;BME280;28283;55.426;37.756;2024-01-11T18:13:04;97610.31;;;-9.05;66.53
42671;BME280;28283;55.426;37.756;2024-01-11T18:18:04;97589.84;;;-8.98;66.98
42671;BME280;28283;55.426;37.756;2024-01-11T18:23:05;97602.44;;;-9.60;67.71
42671;BME280;28283;55.426;37.756;2024-01-11T18:28:07;97599.00;;;-9.26;67.14
42671;BME280;28283;55.426;37.756;2024-01-11T18:33:07;97627.63;;;-9.04;68.81
42671;BME280;28283;55.426;37.756;2024-01-11T18:38:08;97590.88;;;-9.67;69.76
42671;BME280;28283;55.426;37.756;2024-01-11T18:43:08;97655.31;;;-9.25;72.66
42671;BME280;28283;55.426;37.756;2024-01-11T18:48:09;97671.47;;;-9.67;74.96
42671;BME280;28283;55.426;37.756;2024-01-11T18:53:12;97702.72;;;-9.44;76.18
42671;BME280;28283;55.426;37.756;2024-01-11T18:58:13;97716.88;;;-9.95;77.18
42671;BME280;28283;55.426;37.756;2024-01-11T19:03:14;97621.50;;;-10.77;76.80
42671;BME280;28283;55.426;37.756;2024-01-11T19:08:16;97714.53;;;-10.22;74.04
42671;BME280;28283;55.426;37.756;2024-01-11T19:13:16;97716.03;;;-10.55;73.90
42671;BME280;28283;55.426;37.756;2024-01-11T19:18:17;97677.50;;;-10.85;73.16
42671;BME280;28283;55.426;37.756;2024-01-11T19:23:19;97765.19;;;-10.28;71.14
42671;BME280;28283;55.426;37.756;2024-01-11T19:28:20;97788.09;;;-10.22;70.11
42671;BME280;28283;55.426;37.756;2024-01-11T19:33:20;97773.81;;;-9.68;67.86
42671;BME280;28283;55.426;37.756;2024-01-11T19:38:21;97779.09;;;-10.29;68.02
42671;BME280;28283;55.426;37.756;2024-01-11T19:43:22;97788.09;;;-10.22;68.84
42671;BME280;28283;55.426;37.756;2024-01-11T19:48:23;97699.63;;;-10.56;67.48
42671;BME280;28283;55.426;37.756;2024-01-11T19:53:24;97798.59;;;-10.47;68.59
42671;BME280;28283;55.426;37.756;2024-01-11T19:58:24;97807.66;;;-10.29;69.34
42671;BME280;28283;55.426;37.756;2024-01-11T20:03:25;97779.91;;;-10.28;67.43
42671;BME280;28283;55.426;37.756;2024-01-11T20:08:25;97713.00;;;-10.86;66.95
42671;BME280;28283;55.426;37.756;2024-01-11T20:13:26;97809.41;;;-10.41;66.13
42671;BME280;28283;55.426;37.756;2024-01-11T20:18:28;97820.75;;;-10.30;67.05
42671;BME280;28283;55.426;37.756;2024-01-11T20:23:29;97844.72;;;-10.14;65.77
42671;BME280;28283;55.426;37.756;2024-01-11T20:28:29;97826.28;;;-9.74;63.91
42671;BME280;28283;55.426;37.756;2024-01-11T20:33:30;97812.88;;;-10.29;65.51
42671;BME280;28283;55.426;37.756;2024-01-11T20:38:31;97850.56;;;-9.86;65.14
42671;BME280;28283;55.426;37.756;2024-01-11T20:43:32;97796.16;;;-10.01;65.60
42671;BME280;28283;55.426;37.756;2024-01-11T20:48:32;97862.66;;;-9.98;66.37
42671;BME280;28283;55.426;37.756;2024-01-11T20:53:33;97862.06;;;-10.02;67.27
42671;BME280;28283;55.426;37.756;2024-01-11T20:58:34;97841.13;;;-10.24;67.55
42671;BME280;28283;55.426;37.756;2024-01-11T21:03:34;97867.88;;;-9.98;66.89
42671;BME280;28283;55.426;37.756;2024-01-11T21:08:35;97735.66;;;-11.01;67.27
42671;BME280;28283;55.426;37.756;2024-01-11T21:13:35;97815.28;;;-10.88;67.51
42671;BME280;28283;55.426;37.756;2024-01-11T21:18:36;97829.53;;;-10.31;66.07
42671;BME280;28283;55.426;37.756;2024-01-11T21:23:37;97862.63;;;-10.22;66.67
42671;BME280;28283;55.426;37.756;2024-01-11T21:28:37;97845.00;;;-10.30;66.37
42671;BME280;28283;55.426;37.756;2024-01-11T21:33:42;97833.91;;;-10.45;65.91
42671;BME280;28283;55.426;37.756;2024-01-11T21:38:43;97847.63;;;-10.43;65.56
42671;BME280;28283;55.426;37.756;2024-01-11T21:43:43;97886.22;;;-10.25;64.75
42671;BME280;28283;55.426;37.756;2024-01-11T21:48:44;97872.22;;;-10.23;64.64
42671;BME280;28283;55.426;37.756;2024-01-11T21:53:45;97847.03;;;-10.59;63.84
42671;BME280;28283;55.426;37.756;2024-01-11T21:58:46;97899.47;;;-10.41;64.70
42671;BME280;28283;55.426;37.756;2024-01-11T22:03:46;97887.13;;;-10.63;65.45
42671;BME280;28283;55.426;37.756;2024-01-11T22:08:47;97927.22;;;-10.67;62.15
42671;BME280;28283;55.426;37.756;2024-01-11T22:13:48;97947.56;;;-10.74;62.22
42671;BME280;28283;55.426;37.756;2024-01-11T22:18:48;97941.72;;;-11.03;61.43
42671;BME280;28283;55.426;37.756;2024-01-11T22:23:49;97940.66;;;-11.01;63.76
42671;BME280;28283;55.426;37.756;2024-01-11T22:28:50;97964.31;;;-11.05;63.75
42671;BME280;28283;55.426;37.756;2024-01-11T22:33:51;97993.16;;;-11.10;63.87
42671;BME280;28283;55.426;37.756;2024-01-11T22:38:52;98019.44;;;-11.29;62.51
42671;BME280;28283;55.426;37.756;2024-01-11T22:43:53;97967.59;;;-11.71;59.57
42671;BME280;28283;55.426;37.756;2024-01-11T22:48:53;97894.59;;;-12.76;57.99
42671;BME280;28283;55.426;37.756;2024-01-11T22:53:54;98023.34;;;-12.06;57.28
42671;BME280;28283;55.426;37.756;2024-01-11T22:58:55;97962.88;;;-12.20;58.61
42671;BME280;28283;55.426;37.756;2024-01-11T23:03:56;98040.47;;;-12.18;57.42
42671;BME280;28283;55.426;37.756;2024-01-11T23:08:57;98064.53;;;-12.16;59.72
42671;BME280;28283;55.426;37.756;2024-01-11T23:13:57;98079.84;;;-12.58;59.80
42671;BME280;28283;55.426;37.756;2024-01-11T23:18:58;98089.13;;;-12.54;57.01
42671;BME280;28283;55.426;37.756;2024-01-11T23:23:59;98099.63;;;-13.03;60.07
42671;BME280;28283;55.426;37.756;2024-01-11T23:28:59;98100.66;;;-13.37;58.48
42671;BME280;28283;55.426;37.756;2024-01-11T23:34:00;98106.84;;;-13.40;60.65
42671;BME280;28283;55.426;37.756;2024-01-11T23:39:01;98054.81;;;-13.50;59.93
42671;BME280;28283;55.426;37.756;2024-01-11T23:44:01;98112.25;;;-13.13;57.28
42671;BME280;28283;55.426;37.756;2024-01-11T23:49:02;98108.66;;;-13.10;58.33
42671;BME280;28283;55.426;37.756;2024-01-11T23:54:03;98089.56;;;-13.08;58.60
42671;BME280;28283;55.426;37.756;2024-01-11T23:59:04;98161.28;;;-12.79;58.12
